sensor_id;sensor_type;location;lat;lon;timestamp;pressure;altitude;pressure_sealevel;temperature;humidity
1724;BME280;7460;52.738;6.282;2022-10-16T00:01:39;98688.31;;;14.41;100.00
1724;BME280;7460;52.738;6.282;2022-10-16T00:04:12;98688.09;;;14.43;100.00
1724;BME280;7460;52.738;6.282;2022-10-16T00:06:47;98693.09;;;14.28;100.00
1724;BME280;7460;52.738;6.282;2022-10-16T00:09:19;98708.59;;;14.27;100.00
1724;BME280;7460;52.738;6.282;2022-10-16T00:11:52;98729.56;;;14.38;100.00
1724;BME280;7460;52.738;6.282;2022-10-16T00:14:30;98734.91;;;14.33;100.00
1724;BME280;7460;52.738;6.282;2022-10-16T00:17:04;98731.09;;;14.53;100.00
1724;BME280;7460;52.738;6.282;2022-10-16T00:19:37;98736.88;;;14.44;100.00
1724;BME280;7460;52.738;6.282;2022-10-16T00:22:11;98735.81;;;14.46;100.00
1724;BME280;7460;52.738;6.282;2022-10-16T00:24:44;98731.22;;;14.09;100.00
1724;BME280;7460;52.738;6.282;2022-10-16T00:27:17;98746.53;;;14.22;100.00
1724;BME280;7460;52.738;6.282;2022-10-16T00:29:50;98747.28;;;14.29;100.00
1724;BME280;7460;52.738;6.282;2022-10-16T00:32:23;98747.44;;;14.53;100.00
1724;BME280;7460;52.738;6.282;2022-10-16T00:34:56;98756.22;;;14.18;100.00
1724;BME280;7460;52.738;6.282;2022-10-16T00:37:30;98757.13;;;14.30;100.00
1724;BME280;7460;52.738;6.282;2022-10-16T00:40:04;98753.78;;;14.28;100.00
1724;BME280;7460;52.738;6.282;2022-10-16T00:42:37;98770.84;;;14.35;100.00
1724;BME280;7460;52.738;6.282;2022-10-16T00:45:10;98771.25;;;14.21;100.00
1724;BME280;7460;52.738;6.282;2022-10-16T00:47:45;98770.00;;;14.41;100.00
1724;BME280;7460;52.738;6.282;2022-10-16T00:50:24;98771.09;;;14.16;100.00
1724;BME280;7460;52.738;6.282;2022-10-16T00:53:01;98782.75;;;14.04;100.00
1724;BME280;7460;52.738;6.282;2022-10-16T00:55:35;98791.53;;;14.06;100.00
1724;BME280;7460;52.738;6.282;2022-10-16T00:58:13;98783.28;;;14.31;100.00
1724;BME280;7460;52.738;6.282;2022-10-16T01:00:46;98785.31;;;14.36;100.00
1724;BME280;7460;52.738;6.282;2022-10-16T01:03:24;98788.94;;;14.30;100.00
1724;BME280;7460;52.738;6.282;2022-10-16T01:06:11;98790.41;;;14.32;100.00
1724;BME280;7460;52.738;6.282;2022-10-16T01:08:58;98791.56;;;14.36;100.00
1724;BME280;7460;52.738;6.282;2022-10-16T01:11:41;98796.28;;;14.29;100.00
1724;BME280;7460;52.738;6.282;2022-10-16T01:14:22;98799.03;;;14.48;100.00
1724;BME280;7460;52.738;6.282;2022-10-16T01:17:04;98805.50;;;14.10;100.00
1724;BME280;7460;52.738;6.282;2022-10-16T01:20:01;98807.91;;;14.18;100.00
1724;BME280;7460;52.738;6.282;2022-10-16T01:22:40;98797.03;;;14.00;100.00
1724;BME280;7460;52.738;6.282;2022-10-16T01:25:25;98786.06;;;14.06;100.00
1724;BME280;7460;52.738;6.282;2022-10-16T01:28:06;98785.25;;;14.06;100.00
1724;BME280;7460;52.738;6.282;2022-10-16T01:30:44;98799.00;;;14.11;100.00
1724;BME280;7460;52.738;6.282;2022-10-16T01:33:20;98794.84;;;14.08;100.00
1724;BME280;7460;52.738;6.282;2022-10-16T01:35:57;98795.22;;;14.12;100.00
1724;BME280;7460;52.738;6.282;2022-10-16T01:38:34;98802.78;;;14.10;100.00
1724;BME280;7460;52.738;6.282;2022-10-16T01:41:11;98809.28;;;14.09;100.00
1724;BME280;7460;52.738;6.282;2022-10-16T01:43:51;98826.06;;;14.24;100.00
1724;BME280;7460;52.738;6.282;2022-10-16T01:46:28;98825.50;;;13.97;100.00
1724;BME280;7460;52.738;6.282;2022-10-16T01:49:03;98843.16;;;14.13;100.00
1724;BME280;7460;52.738;6.282;2022-10-16T01:51:37;98845.56;;;14.21;100.00
1724;BME280;7460;52.738;6.282;2022-10-16T01:54:11;98851.47;;;14.18;100.00
1724;BME280;7460;52.738;6.282;2022-10-16T01:56:46;98855.59;;;14.02;100.00
1724;BME280;7460;52.738;6.282;2022-10-16T01:59:24;98859.94;;;13.85;100.00
1724;BME280;7460;52.738;6.282;2022-10-16T02:02:00;98869.47;;;13.94;100.00
1724;BME280;7460;52.738;6.282;2022-10-16T02:04:36;98872.31;;;14.06;100.00
1724;BME280;7460;52.738;6.282;2022-10-16T02:07:11;98874.94;;;13.69;100.00
1724;BME280;7460;52.738;6.282;2022-10-16T02:09:44;98873.81;;;13.77;100.00
1724;BME280;7460;52.738;6.282;2022-10-16T02:12:23;98887.31;;;13.65;100.00
1724;BME280;7460;52.738;6.282;2022-10-16T02:14:59;98893.88;;;13.83;100.00
1724;BME280;7460;52.738;6.282;2022-10-16T02:17:32;98909.22;;;13.95;100.00
1724;BME280;7460;52.738;6.282;2022-10-16T02:20:06;98913.56;;;14.03;100.00
1724;BME280;7460;52.738;6.282;2022-10-16T02:22:40;98920.22;;;13.82;100.00
1724;BME280;7460;52.738;6.282;2022-10-16T02:25:17;98912.69;;;13.84;100.00
1724;BME280;7460;52.738;6.282;2022-10-16T02:27:56;98922.72;;;13.84;100.00
1724;BME280;7460;52.738;6.282;2022-10-16T02:30:34;98935.59;;;13.70;100.00
1724;BME280;7460;52.738;6.282;2022-10-16T02:33:10;98948.41;;;13.63;100.00
1724;BME280;7460;52.738;6.282;2022-10-16T02:35:47;98948.38;;;13.69;100.00
1724;BME280;7460;52.738;6.282;2022-10-16T02:38:23;98968.47;;;13.68;100.00
1724;BME280;7460;52.738;6.282;2022-10-16T02:40:58;98968.50;;;13.62;100.00
1724;BME280;7460;52.738;6.282;2022-10-16T02:43:31;98968.13;;;13.52;100.00
1724;BME280;7460;52.738;6.282;2022-10-16T02:46:06;98976.34;;;13.38;100.00
1724;BME280;7460;52.738;6.282;2022-10-16T02:48:39;98984.06;;;13.48;100.00
1724;BME280;7460;52.738;6.282;2022-10-16T02:51:12;98980.34;;;13.36;100.00
1724;BME280;7460;52.738;6.282;2022-10-16T02:53:45;98991.16;;;13.49;100.00
1724;BME280;7460;52.738;6.282;2022-10-16T02:56:18;98995.50;;;13.57;100.00
1724;BME280;7460;52.738;6.282;2022-10-16T02:58:51;98985.94;;;13.48;100.00
1724;BME280;7460;52.738;6.282;2022-10-16T03:01:25;98998.72;;;13.40;100.00
1724;BME280;7460;52.738;6.282;2022-10-16T03:03:58;98999.00;;;13.26;100.00
1724;BME280;7460;52.738;6.282;2022-10-16T03:06:30;99010.03;;;13.31;100.00
1724;BME280;7460;52.738;6.282;2022-10-16T03:09:03;99006.72;;;13.29;100.00
1724;BME280;7460;52.738;6.282;2022-10-16T03:11:36;99020.91;;;13.31;100.00
1724;BME280;7460;52.738;6.282;2022-10-16T03:14:09;99031.00;;;13.24;100.00
1724;BME280;7460;52.738;6.282;2022-10-16T03:16:43;99033.09;;;13.22;100.00
1724;BME280;7460;52.738;6.282;2022-10-16T03:19:16;99044.38;;;13.25;100.00
1724;BME280;7460;52.738;6.282;2022-10-16T03:21:49;99045.63;;;13.23;100.00
1724;BME280;7460;52.738;6.282;2022-10-16T03:24:22;99059.03;;;12.98;100.00
1724;BME280;7460;52.738;6.282;2022-10-16T03:26:55;99064.06;;;13.07;100.00
1724;BME280;7460;52.738;6.282;2022-10-16T03:29:28;99074.97;;;12.88;100.00
1724;BME280;7460;52.738;6.282;2022-10-16T03:32:02;99074.94;;;12.94;100.00
1724;BME280;7460;52.738;6.282;2022-10-16T03:34:35;99075.13;;;12.93;100.00
1724;BME280;7460;52.738;6.282;2022-10-16T03:37:08;99081.44;;;12.87;100.00
1724;BME280;7460;52.738;6.282;2022-10-16T03:39:41;99088.75;;;12.73;100.00
1724;BME280;7460;52.738;6.282;2022-10-16T03:42:13;99097.94;;;12.72;100.00
1724;BME280;7460;52.738;6.282;2022-10-16T03:44:46;99101.28;;;12.74;100.00
1724;BME280;7460;52.738;6.282;2022-10-16T03:47:21;99111.31;;;12.60;100.00
1724;BME280;7460;52.738;6.282;2022-10-16T03:49:55;99116.31;;;12.50;100.00
1724;BME280;7460;52.738;6.282;2022-10-16T03:52:28;99113.81;;;12.55;100.00
1724;BME280;7460;52.738;6.282;2022-10-16T03:55:01;99127.41;;;12.62;100.00
1724;BME280;7460;52.738;6.282;2022-10-16T03:57:34;99131.16;;;12.67;100.00
1724;BME280;7460;52.738;6.282;2022-10-16T04:00:07;99146.59;;;12.60;100.00
1724;BME280;7460;52.738;6.282;2022-10-16T04:02:42;99141.78;;;12.49;100.00
1724;BME280;7460;52.738;6.282;2022-10-16T04:05:20;99143.88;;;12.54;100.00
1724;BME280;7460;52.738;6.282;2022-10-16T04:07:52;99153.50;;;12.56;100.00
1724;BME280;7460;52.738;6.282;2022-10-16T04:10:26;99157.25;;;12.68;100.00
1724;BME280;7460;52.738;6.282;2022-10-16T04:12:59;99166.84;;;12.71;100.00
1724;BME280;7460;52.738;6.282;2022-10-16T04:15:32;99172.94;;;12.66;100.00
1724;BME280;7460;52.738;6.282;2022-10-16T04:18:06;99176.25;;;12.55;100.00
1724;BME280;7460;52.738;6.282;2022-10-16T04:20:40;99185.66;;;12.59;100.00
1724;BME280;7460;52.738;6.282;2022-10-16T04:23:13;99187.31;;;12.54;100.00
1724;BME280;7460;52.738;6.282;2022-10-16T04:25:46;99190.88;;;12.54;100.00
1724;BME280;7460;52.738;6.282;2022-10-16T04:28:19;99199.00;;;12.48;100.00
1724;BME280;7460;52.738;6.282;2022-10-16T04:30:52;99204.84;;;12.45;100.00
1724;BME280;7460;52.738;6.282;2022-10-16T04:33:26;99205.06;;;12.43;100.00
1724;BME280;7460;52.738;6.282;2022-10-16T04:36:00;99205.66;;;12.38;100.00
1724;BME280;7460;52.738;6.282;2022-10-16T04:38:33;99211.94;;;12.39;100.00
1724;BME280;7460;52.738;6.282;2022-10-16T04:41:07;99222.97;;;12.24;100.00
1724;BME280;7460;52.738;6.282;2022-10-16T04:43:40;99223.81;;;12.25;100.00
1724;BME280;7460;52.738;6.282;2022-10-16T04:46:13;99225.69;;;12.24;100.00
1724;BME280;7460;52.738;6.282;2022-10-16T04:48:47;99235.06;;;12.22;100.00
1724;BME280;7460;52.738;6.282;2022-10-16T04:51:19;99251.34;;;12.22;100.00
1724;BME280;7460;52.738;6.282;2022-10-16T04:53:52;99251.53;;;12.20;100.00
1724;BME280;7460;52.738;6.282;2022-10-16T04:56:25;99259.44;;;12.15;100.00
1724;BME280;7460;52.738;6.282;2022-10-16T04:58:58;99266.91;;;12.07;100.00
1724;BME280;7460;52.738;6.282;2022-10-16T05:01:31;99263.16;;;12.08;100.00
1724;BME280;7460;52.738;6.282;2022-10-16T05:04:05;99263.97;;;12.01;100.00
1724;BME280;7460;52.738;6.282;2022-10-16T05:06:38;99273.50;;;11.91;100.00
1724;BME280;7460;52.738;6.282;2022-10-16T05:09:11;99282.69;;;11.90;100.00
1724;BME280;7460;52.738;6.282;2022-10-16T05:11:44;99285.59;;;11.88;100.00
1724;BME280;7460;52.738;6.282;2022-10-16T05:14:17;99300.38;;;11.86;100.00
1724;BME280;7460;52.738;6.282;2022-10-16T05:16:51;99304.38;;;11.90;100.00
1724;BME280;7460;52.738;6.282;2022-10-16T05:19:25;99308.94;;;11.83;100.00
1724;BME280;7460;52.738;6.282;2022-10-16T05:21:59;99310.69;;;11.97;100.00
1724;BME280;7460;52.738;6.282;2022-10-16T05:24:32;99309.22;;;11.94;100.00
1724;BME280;7460;52.738;6.282;2022-10-16T05:27:05;99307.19;;;12.03;100.00
1724;BME280;7460;52.738;6.282;2022-10-16T05:29:37;99318.22;;;12.01;100.00
1724;BME280;7460;52.738;6.282;2022-10-16T05:32:10;99332.00;;;12.00;100.00
1724;BME280;7460;52.738;6.282;2022-10-16T05:34:45;99330.72;;;11.96;100.00
1724;BME280;7460;52.738;6.282;2022-10-16T05:37:18;99334.41;;;11.88;100.00
1724;BME280;7460;52.738;6.282;2022-10-16T05:39:51;99341.50;;;11.89;100.00
1724;BME280;7460;52.738;6.282;2022-10-16T05:42:24;99344.47;;;11.94;100.00
1724;BME280;7460;52.738;6.282;2022-10-16T05:44:56;99359.00;;;11.87;100.00
1724;BME280;7460;52.738;6.282;2022-10-16T05:47:29;99364.88;;;11.90;100.00
1724;BME280;7460;52.738;6.282;2022-10-16T05:50:04;99369.00;;;11.86;100.00
1724;BME280;7460;52.738;6.282;2022-10-16T05:52:37;99365.69;;;11.84;100.00
1724;BME280;7460;52.738;6.282;2022-10-16T05:55:10;99373.75;;;11.78;100.00
1724;BME280;7460;52.738;6.282;2022-10-16T05:57:42;99371.41;;;11.75;100.00
1724;BME280;7460;52.738;6.282;2022-10-16T06:00:15;99382.66;;;11.71;100.00
1724;BME280;7460;52.738;6.282;2022-10-16T06:02:48;99382.66;;;11.71;100.00
1724;BME280;7460;52.738;6.282;2022-10-16T06:05:22;99386.97;;;11.66;100.00
1724;BME280;7460;52.738;6.282;2022-10-16T06:07:55;99383.41;;;11.65;100.00
1724;BME280;7460;52.738;6.282;2022-10-16T06:10:28;99382.38;;;11.66;100.00
1724;BME280;7460;52.738;6.282;2022-10-16T06:13:01;99386.97;;;11.66;100.00
1724;BME280;7460;52.738;6.282;2022-10-16T06:15:34;99390.13;;;11.69;100.00
1724;BME280;7460;52.738;6.282;2022-10-16T06:18:06;99394.25;;;11.65;100.00
1724;BME280;7460;52.738;6.282;2022-10-16T06:20:41;99399.69;;;11.65;100.00
1724;BME280;7460;52.738;6.282;2022-10-16T06:23:14;99403.84;;;11.61;100.00
1724;BME280;7460;52.738;6.282;2022-10-16T06:25:46;99407.34;;;11.55;100.00
1724;BME280;7460;52.738;6.282;2022-10-16T06:28:19;99412.22;;;11.45;100.00
1724;BME280;7460;52.738;6.282;2022-10-16T06:30:58;99421.84;;;11.48;100.00
1724;BME280;7460;52.738;6.282;2022-10-16T06:33:38;99419.78;;;11.50;100.00
1724;BME280;7460;52.738;6.282;2022-10-16T06:36:14;99425.00;;;11.51;100.00
1724;BME280;7460;52.738;6.282;2022-10-16T06:38:47;99433.69;;;11.40;100.00
1724;BME280;7460;52.738;6.282;2022-10-16T06:41:21;99436.25;;;11.48;100.00
1724;BME280;7460;52.738;6.282;2022-10-16T06:43:54;99440.16;;;11.46;100.00
1724;BME280;7460;52.738;6.282;2022-10-16T06:46:27;99448.56;;;11.51;100.00
1724;BME280;7460;52.738;6.282;2022-10-16T06:49:00;99456.69;;;11.51;100.00
1724;BME280;7460;52.738;6.282;2022-10-16T06:51:34;99453.91;;;11.44;100.00
1724;BME280;7460;52.738;6.282;2022-10-16T06:54:15;99460.06;;;11.53;100.00
1724;BME280;7460;52.738;6.282;2022-10-16T06:56:47;99462.50;;;11.48;100.00
1724;BME280;7460;52.738;6.282;2022-10-16T06:59:20;99466.69;;;11.50;100.00
1724;BME280;7460;52.738;6.282;2022-10-16T07:01:53;99474.38;;;11.68;100.00
1724;BME280;7460;52.738;6.282;2022-10-16T07:04:26;99483.94;;;11.64;100.00
1724;BME280;7460;52.738;6.282;2022-10-16T07:07:01;99488.50;;;11.78;100.00
1724;BME280;7460;52.738;6.282;2022-10-16T07:09:40;99497.94;;;11.82;100.00
1724;BME280;7460;52.738;6.282;2022-10-16T07:12:13;99505.97;;;11.97;100.00
1724;BME280;7460;52.738;6.282;2022-10-16T07:14:46;99513.09;;;11.98;100.00
1724;BME280;7460;52.738;6.282;2022-10-16T07:17:18;99512.09;;;12.05;100.00
1724;BME280;7460;52.738;6.282;2022-10-16T07:19:51;99529.41;;;12.26;100.00
1724;BME280;7460;52.738;6.282;2022-10-16T07:22:28;99537.06;;;12.44;100.00
1724;BME280;7460;52.738;6.282;2022-10-16T07:25:00;99551.16;;;12.60;100.00
1724;BME280;7460;52.738;6.282;2022-10-16T07:27:33;99554.84;;;13.15;100.00
1724;BME280;7460;52.738;6.282;2022-10-16T07:30:11;99568.66;;;13.74;100.00
1724;BME280;7460;52.738;6.282;2022-10-16T07:32:44;99567.72;;;14.08;100.00
1724;BME280;7460;52.738;6.282;2022-10-16T07:35:17;99572.72;;;14.05;100.00
1724;BME280;7460;52.738;6.282;2022-10-16T07:37:51;99575.84;;;13.95;100.00
1724;BME280;7460;52.738;6.282;2022-10-16T07:40:24;99576.84;;;13.74;100.00
1724;BME280;7460;52.738;6.282;2022-10-16T07:42:58;99591.00;;;13.50;100.00
1724;BME280;7460;52.738;6.282;2022-10-16T07:45:33;99593.63;;;13.37;100.00
1724;BME280;7460;52.738;6.282;2022-10-16T07:48:06;99597.16;;;13.31;100.00
1724;BME280;7460;52.738;6.282;2022-10-16T07:50:39;99599.63;;;13.19;100.00
1724;BME280;7460;52.738;6.282;2022-10-16T07:53:13;99607.56;;;13.21;100.00
1724;BME280;7460;52.738;6.282;2022-10-16T07:55:46;99616.03;;;13.11;100.00
1724;BME280;7460;52.738;6.282;2022-10-16T07:58:19;99619.88;;;13.17;100.00
1724;BME280;7460;52.738;6.282;2022-10-16T08:00:52;99625.97;;;13.19;100.00
1724;BME280;7460;52.738;6.282;2022-10-16T08:03:25;99634.34;;;13.24;100.00
1724;BME280;7460;52.738;6.282;2022-10-16T08:05:58;99642.78;;;13.35;100.00
1724;BME280;7460;52.738;6.282;2022-10-16T08:08:33;99648.22;;;13.35;100.00
1724;BME280;7460;52.738;6.282;2022-10-16T08:11:06;99649.09;;;13.43;100.00
1724;BME280;7460;52.738;6.282;2022-10-16T08:13:39;99652.91;;;13.55;100.00
1724;BME280;7460;52.738;6.282;2022-10-16T08:16:12;99657.81;;;13.72;100.00
1724;BME280;7460;52.738;6.282;2022-10-16T08:18:45;99650.47;;;13.73;100.00
1724;BME280;7460;52.738;6.282;2022-10-16T08:21:20;99661.34;;;13.66;100.00
1724;BME280;7460;52.738;6.282;2022-10-16T08:23:55;99671.84;;;13.69;100.00
1724;BME280;7460;52.738;6.282;2022-10-16T08:26:29;99679.88;;;13.91;100.00
1724;BME280;7460;52.738;6.282;2022-10-16T08:29:02;99684.69;;;13.89;100.00
1724;BME280;7460;52.738;6.282;2022-10-16T08:31:35;99688.38;;;13.74;100.00
1724;BME280;7460;52.738;6.282;2022-10-16T08:34:08;99694.94;;;13.93;100.00
1724;BME280;7460;52.738;6.282;2022-10-16T08:36:41;99710.72;;;14.11;100.00
1724;BME280;7460;52.738;6.282;2022-10-16T08:39:15;99720.97;;;14.16;100.00
1724;BME280;7460;52.738;6.282;2022-10-16T08:42:15;99716.09;;;14.59;100.00
1724;BME280;7460;52.738;6.282;2022-10-16T08:45:10;99719.25;;;15.28;100.00
1724;BME280;7460;52.738;6.282;2022-10-16T08:47:49;99727.69;;;16.04;100.00
1724;BME280;7460;52.738;6.282;2022-10-16T08:50:29;99740.44;;;17.25;100.00
1724;BME280;7460;52.738;6.282;2022-10-16T08:53:03;99758.72;;;18.10;100.00
1724;BME280;7460;52.738;6.282;2022-10-16T08:55:43;99760.59;;;17.73;99.22
1724;BME280;7460;52.738;6.282;2022-10-16T08:58:20;99758.53;;;17.69;99.36
1724;BME280;7460;52.738;6.282;2022-10-16T09:00:54;99762.38;;;17.61;98.04
1724;BME280;7460;52.738;6.282;2022-10-16T09:06:40;99757.81;;;17.80;97.46
1724;BME280;7460;52.738;6.282;2022-10-16T09:09:43;99767.69;;;17.99;97.66
1724;BME280;7460;52.738;6.282;2022-10-16T09:12:24;99771.59;;;17.67;95.64
1724;BME280;7460;52.738;6.282;2022-10-16T09:15:11;99769.13;;;17.40;97.93
1724;BME280;7460;52.738;6.282;2022-10-16T09:17:54;99773.72;;;16.90;98.26
1724;BME280;7460;52.738;6.282;2022-10-16T09:20:34;99770.19;;;16.83;99.12
1724;BME280;7460;52.738;6.282;2022-10-16T09:23:16;99772.75;;;16.78;99.14
1724;BME280;7460;52.738;6.282;2022-10-16T09:25:51;99768.63;;;16.62;99.73
1724;BME280;7460;52.738;6.282;2022-10-16T09:28:26;99769.53;;;16.43;100.00
1724;BME280;7460;52.738;6.282;2022-10-16T09:30:59;99776.47;;;16.45;100.00
1724;BME280;7460;52.738;6.282;2022-10-16T09:33:35;99787.03;;;16.35;100.00
1724;BME280;7460;52.738;6.282;2022-10-16T09:36:10;99780.72;;;16.41;100.00
1724;BME280;7460;52.738;6.282;2022-10-16T09:38:44;99778.44;;;16.25;100.00
1724;BME280;7460;52.738;6.282;2022-10-16T09:41:19;99775.34;;;16.15;100.00
1724;BME280;7460;52.738;6.282;2022-10-16T09:43:56;99780.13;;;16.26;100.00
1724;BME280;7460;52.738;6.282;2022-10-16T09:46:31;99786.84;;;16.24;100.00
1724;BME280;7460;52.738;6.282;2022-10-16T09:49:20;99799.44;;;16.31;100.00
1724;BME280;7460;52.738;6.282;2022-10-16T09:52:03;99803.56;;;15.82;100.00
1724;BME280;7460;52.738;6.282;2022-10-16T09:54:36;99794.34;;;15.77;100.00
1724;BME280;7460;52.738;6.282;2022-10-16T09:57:16;99795.63;;;15.74;100.00
1724;BME280;7460;52.738;6.282;2022-10-16T09:59:52;99802.50;;;15.97;100.00
1724;BME280;7460;52.738;6.282;2022-10-16T10:02:29;99812.53;;;16.03;100.00
1724;BME280;7460;52.738;6.282;2022-10-16T10:05:04;99811.97;;;15.88;100.00
1724;BME280;7460;52.738;6.282;2022-10-16T10:07:42;99815.94;;;15.92;100.00
1724;BME280;7460;52.738;6.282;2022-10-16T10:10:21;99818.34;;;16.26;100.00
1724;BME280;7460;52.738;6.282;2022-10-16T10:12:55;99819.47;;;16.12;100.00
1724;BME280;7460;52.738;6.282;2022-10-16T10:15:34;99818.22;;;16.08;100.00
1724;BME280;7460;52.738;6.282;2022-10-16T10:18:16;99814.69;;;15.94;100.00
1724;BME280;7460;52.738;6.282;2022-10-16T10:21:00;99808.34;;;16.07;100.00
1724;BME280;7460;52.738;6.282;2022-10-16T10:23:38;99806.34;;;16.40;100.00
1724;BME280;7460;52.738;6.282;2022-10-16T10:26:16;99819.03;;;16.73;100.00
1724;BME280;7460;52.738;6.282;2022-10-16T10:28:58;99817.84;;;16.94;100.00
1724;BME280;7460;52.738;6.282;2022-10-16T10:31:44;99811.41;;;16.81;100.00
1724;BME280;7460;52.738;6.282;2022-10-16T10:34:32;99802.22;;;16.69;99.97
1724;BME280;7460;52.738;6.282;2022-10-16T10:37:22;99797.66;;;16.57;98.61
1724;BME280;7460;52.738;6.282;2022-10-16T10:40:07;99812.75;;;16.66;97.88
1724;BME280;7460;52.738;6.282;2022-10-16T10:42:47;99820.19;;;16.90;97.59
1724;BME280;7460;52.738;6.282;2022-10-16T10:45:27;99832.50;;;16.68;97.75
1724;BME280;7460;52.738;6.282;2022-10-16T10:48:16;99831.88;;;16.66;95.81
1724;BME280;7460;52.738;6.282;2022-10-16T10:50:55;99831.94;;;17.53;91.87
1724;BME280;7460;52.738;6.282;2022-10-16T10:53:38;99831.66;;;17.62;90.48
1724;BME280;7460;52.738;6.282;2022-10-16T10:56:29;99815.59;;;17.15;93.90
1724;BME280;7460;52.738;6.282;2022-10-16T10:59:32;99815.09;;;17.00;94.19
1724;BME280;7460;52.738;6.282;2022-10-16T11:02:15;99816.41;;;16.84;94.73
1724;BME280;7460;52.738;6.282;2022-10-16T11:05:00;99814.53;;;16.85;96.22
1724;BME280;7460;52.738;6.282;2022-10-16T11:07:47;99803.16;;;17.20;95.12
1724;BME280;7460;52.738;6.282;2022-10-16T11:10:23;99806.44;;;17.28;92.83
1724;BME280;7460;52.738;6.282;2022-10-16T11:13:03;99812.59;;;17.48;94.23
1724;BME280;7460;52.738;6.282;2022-10-16T11:15:43;99808.75;;;17.31;93.92
1724;BME280;7460;52.738;6.282;2022-10-16T11:18:21;99810.59;;;17.37;94.53
1724;BME280;7460;52.738;6.282;2022-10-16T11:21:00;99811.91;;;17.28;93.60
1724;BME280;7460;52.738;6.282;2022-10-16T11:23:40;99806.97;;;17.18;92.95
1724;BME280;7460;52.738;6.282;2022-10-16T11:26:20;99803.34;;;17.25;92.91
1724;BME280;7460;52.738;6.282;2022-10-16T11:28:55;99806.59;;;17.40;93.60
1724;BME280;7460;52.738;6.282;2022-10-16T11:31:36;99810.81;;;17.36;91.36
1724;BME280;7460;52.738;6.282;2022-10-16T11:34:19;99809.63;;;17.50;89.48
1724;BME280;7460;52.738;6.282;2022-10-16T11:36:58;99802.84;;;17.59;87.32
1724;BME280;7460;52.738;6.282;2022-10-16T11:39:32;99802.72;;;17.72;88.17
1724;BME280;7460;52.738;6.282;2022-10-16T11:42:10;99804.34;;;17.55;88.85
1724;BME280;7460;52.738;6.282;2022-10-16T11:44:50;99805.91;;;17.44;85.91
1724;BME280;7460;52.738;6.282;2022-10-16T11:47:33;99801.66;;;17.24;83.78
1724;BME280;7460;52.738;6.282;2022-10-16T11:50:31;99804.56;;;17.29;86.26
1724;BME280;7460;52.738;6.282;2022-10-16T11:53:16;99801.78;;;17.35;87.24
1724;BME280;7460;52.738;6.282;2022-10-16T11:55:51;99806.00;;;17.56;86.65
1724;BME280;7460;52.738;6.282;2022-10-16T11:58:28;99802.72;;;17.47;86.51
1724;BME280;7460;52.738;6.282;2022-10-16T12:01:16;99821.50;;;17.44;86.28
1724;BME280;7460;52.738;6.282;2022-10-16T12:04:01;99824.34;;;17.56;87.39
1724;BME280;7460;52.738;6.282;2022-10-16T12:06:40;99825.38;;;17.30;86.41
1724;BME280;7460;52.738;6.282;2022-10-16T12:09:21;99823.75;;;17.47;84.12
1724;BME280;7460;52.738;6.282;2022-10-16T12:11:56;99819.81;;;17.43;86.16
1724;BME280;7460;52.738;6.282;2022-10-16T12:14:38;99821.13;;;17.34;83.06
1724;BME280;7460;52.738;6.282;2022-10-16T12:17:35;99820.75;;;17.55;83.91
1724;BME280;7460;52.738;6.282;2022-10-16T12:20:24;99830.28;;;17.46;84.37
1724;BME280;7460;52.738;6.282;2022-10-16T12:23:00;99835.22;;;17.37;83.13
1724;BME280;7460;52.738;6.282;2022-10-16T12:25:37;99847.69;;;17.58;83.90
1724;BME280;7460;52.738;6.282;2022-10-16T12:28:20;99855.66;;;17.66;82.53
1724;BME280;7460;52.738;6.282;2022-10-16T12:30:55;99842.63;;;17.87;84.93
1724;BME280;7460;52.738;6.282;2022-10-16T12:33:30;99842.16;;;17.90;81.36
1724;BME280;7460;52.738;6.282;2022-10-16T12:36:05;99837.03;;;17.75;79.75
1724;BME280;7460;52.738;6.282;2022-10-16T12:38:47;99852.63;;;17.74;76.06
1724;BME280;7460;52.738;6.282;2022-10-16T12:41:27;99863.31;;;17.82;78.37
1724;BME280;7460;52.738;6.282;2022-10-16T12:44:01;99853.88;;;17.47;80.82
1724;BME280;7460;52.738;6.282;2022-10-16T12:46:38;99856.38;;;17.48;80.33
1724;BME280;7460;52.738;6.282;2022-10-16T12:49:22;99858.19;;;17.61;80.89
1724;BME280;7460;52.738;6.282;2022-10-16T12:52:01;99864.28;;;17.88;83.38
1724;BME280;7460;52.738;6.282;2022-10-16T12:54:36;99864.34;;;17.81;81.51
1724;BME280;7460;52.738;6.282;2022-10-16T12:57:29;99852.66;;;17.93;83.96
1724;BME280;7460;52.738;6.282;2022-10-16T13:00:17;99843.56;;;18.17;81.80
1724;BME280;7460;52.738;6.282;2022-10-16T13:06:22;99851.63;;;18.30;81.58
1724;BME280;7460;52.738;6.282;2022-10-16T13:09:19;99846.75;;;18.32;82.84
1724;BME280;7460;52.738;6.282;2022-10-16T13:12:06;99852.53;;;18.42;81.87
1724;BME280;7460;52.738;6.282;2022-10-16T13:14:59;99856.88;;;18.50;82.92
1724;BME280;7460;52.738;6.282;2022-10-16T13:17:42;99859.72;;;18.43;82.45
1724;BME280;7460;52.738;6.282;2022-10-16T13:20:22;99847.38;;;18.34;82.63
1724;BME280;7460;52.738;6.282;2022-10-16T13:23:04;99854.00;;;18.45;84.50
1724;BME280;7460;52.738;6.282;2022-10-16T13:25:51;99852.22;;;18.50;83.31
1724;BME280;7460;52.738;6.282;2022-10-16T13:28:31;99837.47;;;18.33;80.90
1724;BME280;7460;52.738;6.282;2022-10-16T13:31:13;99843.88;;;18.27;81.39
1724;BME280;7460;52.738;6.282;2022-10-16T13:33:50;99850.25;;;18.21;82.43
1724;BME280;7460;52.738;6.282;2022-10-16T13:36:27;99844.72;;;18.28;85.49
1724;BME280;7460;52.738;6.282;2022-10-16T13:39:10;99841.19;;;18.02;82.26
1724;BME280;7460;52.738;6.282;2022-10-16T13:41:44;99840.75;;;18.05;84.99
1724;BME280;7460;52.738;6.282;2022-10-16T13:44:19;99848.63;;;17.95;84.72
1724;BME280;7460;52.738;6.282;2022-10-16T13:46:59;99837.06;;;17.93;85.94
1724;BME280;7460;52.738;6.282;2022-10-16T13:49:32;99839.19;;;17.91;85.34
1724;BME280;7460;52.738;6.282;2022-10-16T13:52:05;99840.03;;;17.92;88.13
1724;BME280;7460;52.738;6.282;2022-10-16T13:54:38;99836.47;;;18.09;85.71
1724;BME280;7460;52.738;6.282;2022-10-16T13:57:13;99822.09;;;17.96;87.47
1724;BME280;7460;52.738;6.282;2022-10-16T13:59:58;99834.56;;;18.10;87.26
1724;BME280;7460;52.738;6.282;2022-10-16T14:02:35;99844.59;;;17.98;83.29
1724;BME280;7460;52.738;6.282;2022-10-16T14:05:10;99849.00;;;17.80;78.34
1724;BME280;7460;52.738;6.282;2022-10-16T14:07:49;99842.97;;;17.90;80.57
1724;BME280;7460;52.738;6.282;2022-10-16T14:10:25;99840.47;;;17.89;83.44
1724;BME280;7460;52.738;6.282;2022-10-16T14:13:02;99849.25;;;17.97;84.42